Time;durP1;ratioP1;P1;durP2;ratioP2;P2;SDS_P1;SDS_P2;PMS_P1;PMS_P2;Temp;Humidity;BMP_temperature;BMP_pressure;BME280_temperature;BME280_humidity;BME280_pressure;Samples;Min_cycle;Max_cycle;Signal;HPM_P1;HPM_P2
2021/06/30 00:01:45;;;;;;;11.03;7.65;;;;;;;20.42;70.55;95892.26;127964;1093;28647;-90
2021/06/30 00:04:17;;;;;;;7.83;6.85;;;;;;;20.32;70.62;95897.42;127945;1093;31942;-93
2021/06/30 00:06:48;;;;;;;7.90;7.10;;;;;;;20.24;70.88;95903.80;127912;1093;30230;-93
2021/06/30 00:09:20;;;;;;;8.78;6.38;;;;;;;20.14;70.93;95905.19;127936;1093;29126;-94
2021/06/30 00:11:55;;;;;;;7.58;6.73;;;;;;;20.07;71.28;95908.51;127864;1093;40074;-94
2021/06/30 00:14:26;;;;;;;8.33;7.30;;;;;;;20.06;71.15;95900.79;127915;1093;32499;-94
2021/06/30 00:16:59;;;;;;;7.98;7.08;;;;;;;20.04;71.30;95906.53;127881;1093;36629;-95
2021/06/30 00:19:31;;;;;;;7.63;6.55;;;;;;;20.02;71.71;95914.19;127938;1093;31993;-94
2021/06/30 00:22:03;;;;;;;9.30;7.00;;;;;;;19.99;71.59;95927.58;127904;1092;30816;-92
2021/06/30 00:24:34;;;;;;;8.95;7.18;;;;;;;19.96;71.67;95922.88;127896;1093;30701;-94
2021/06/30 00:27:06;;;;;;;8.63;7.35;;;;;;;19.95;71.76;95932.87;127908;1093;25010;-92
2021/06/30 00:29:38;;;;;;;9.55;6.70;;;;;;;19.96;71.86;95931.73;127937;1093;28629;-93
2021/06/30 00:32:10;;;;;;;9.70;7.20;;;;;;;19.99;72.08;95919.51;127895;1093;30849;-94
2021/06/30 00:34:41;;;;;;;7.88;6.70;;;;;;;20.07;72.02;95921.96;127876;1093;28237;-94
2021/06/30 00:37:13;;;;;;;9.40;6.55;;;;;;;20.14;71.87;95922.11;127827;1092;48676;-93
2021/06/30 00:39:45;;;;;;;6.65;5.53;;;;;;;20.21;71.88;95921.45;127976;1093;30280;-92
2021/06/30 00:42:16;;;;;;;8.53;6.43;;;;;;;20.25;71.61;95930.36;127993;1093;27641;-93
2021/06/30 00:44:48;;;;;;;8.90;7.33;;;;;;;20.27;71.63;95927.31;128033;1092;27308;-93
2021/06/30 00:47:21;;;;;;;7.13;6.25;;;;;;;20.29;71.53;95916.98;127956;1093;27470;-92
2021/06/30 00:49:53;;;;;;;9.08;7.25;;;;;;;20.32;71.33;95935.11;127934;1093;32254;-94
2021/06/30 00:52:25;;;;;;;7.20;6.40;;;;;;;20.30;71.38;95945.45;127964;1092;25221;-93
2021/06/30 00:54:56;;;;;;;9.70;6.43;;;;;;;20.29;71.13;95955.45;128043;1093;31567;-93
2021/06/30 00:57:29;;;;;;;6.65;5.40;;;;;;;20.41;70.99;95990.32;127917;1093;28861;-93
2021/06/30 01:00:00;;;;;;;8.00;5.97;;;;;;;20.99;69.86;96011.73;128014;1093;31002;-91
2021/06/30 01:02:32;;;;;;;8.75;5.70;;;;;;;21.26;69.12;96020.69;127903;1093;27787;-92
2021/06/30 01:05:04;;;;;;;8.37;5.10;;;;;;;21.36;68.35;96030.06;127843;1093;31303;-94
2021/06/30 01:07:35;;;;;;;6.10;4.55;;;;;;;21.34;67.98;96037.73;127872;1093;31271;-92
2021/06/30 01:10:08;;;;;;;6.68;4.58;;;;;;;21.25;67.29;96039.89;127815;1093;26993;-92
2021/06/30 01:12:40;;;;;;;6.80;4.43;;;;;;;21.17;66.48;96046.29;127875;1093;27195;-92
2021/06/30 01:15:14;;;;;;;5.80;3.93;;;;;;;21.11;66.29;96078.14;127852;1093;27222;-92
2021/06/30 01:17:47;;;;;;;5.48;3.55;;;;;;;21.04;66.06;96083.42;127884;1093;25975;-91
2021/06/30 01:20:20;;;;;;;4.98;3.50;;;;;;;20.97;65.84;96084.09;127849;1093;27838;-92
2021/06/30 01:23:07;;;;;;;5.45;3.30;;;;;;;20.91;65.75;96085.50;127877;1093;46792;-93
2021/06/30 01:25:39;;;;;;;7.33;3.65;;;;;;;20.88;65.29;96117.78;127856;1093;28007;-92
2021/06/30 01:28:11;;;;;;;4.50;3.25;;;;;;;20.85;65.48;96142.74;127898;1093;26845;-93
2021/06/30 01:30:45;;;;;;;5.85;3.70;;;;;;;20.82;65.40;96167.68;127846;1093;31956;-92
2021/06/30 01:33:17;;;;;;;10.28;3.23;;;;;;;20.63;66.67;96144.22;128326;1093;28611;-93
2021/06/30 01:35:49;;;;;;;9.50;2.53;;;;;;;20.28;67.94;96136.94;127903;1093;24054;-89
2021/06/30 01:38:25;;;;;;;8.20;2.13;;;;;;;19.91;69.30;96128.42;127904;1093;23791;-90
2021/06/30 01:40:58;;;;;;;4.13;2.10;;;;;;;19.59;70.33;96156.48;128437;1092;27020;-92
2021/06/30 01:43:29;;;;;;;8.20;3.03;;;;;;;19.33;71.34;96152.34;128237;1093;28485;-94
2021/06/30 01:46:01;;;;;;;4.25;1.98;;;;;;;19.19;71.57;96133.17;128631;1093;34746;-94
2021/06/30 01:48:32;;;;;;;5.28;2.33;;;;;;;19.15;71.93;96149.21;128702;1092;31017;-95
2021/06/30 01:51:04;;;;;;;3.65;2.10;;;;;;;19.06;72.43;96162.02;128568;1093;34656;-94
2021/06/30 01:53:36;;;;;;;2.05;1.85;;;;;;;18.96;72.87;96151.75;128375;1092;55452;-94
2021/06/30 01:56:07;;;;;;;3.68;2.00;;;;;;;18.87;73.35;96143.86;128403;1093;30965;-95
2021/06/30 01:58:39;;;;;;;6.73;2.10;;;;;;;18.85;73.51;96131.88;128379;1093;34140;-94
2021/06/30 02:01:10;;;;;;;4.45;1.95;;;;;;;18.87;73.88;96097.42;128537;1093;32665;-94
2021/06/30 02:03:42;;;;;;;3.40;1.80;;;;;;;18.95;73.88;96099.16;128631;1093;33712;-95
2021/06/30 02:06:13;;;;;;;2.33;1.43;;;;;;;19.01;73.92;96115.81;128663;1093;28725;-95
2021/06/30 02:08:45;;;;;;;4.40;2.10;;;;;;;19.03;73.71;96124.31;128719;1093;31557;-95
2021/06/30 02:11:16;;;;;;;1.93;1.73;;;;;;;19.07;73.75;96071.44;128705;1093;32782;-95
2021/06/30 02:13:48;;;;;;;2.58;1.85;;;;;;;19.12;73.80;96022.81;128500;1093;37108;-95
2021/06/30 02:16:19;;;;;;;3.18;2.08;;;;;;;19.04;74.11;96050.64;128285;1092;29696;-92
2021/06/30 02:18:51;;;;;;;5.03;2.20;;;;;;;18.96;74.34;96039.70;128172;1093;34446;-94
2021/06/30 02:21:22;;;;;;;4.95;2.05;;;;;;;18.83;74.23;96045.50;128116;1093;32793;-94
2021/06/30 02:23:54;;;;;;;5.43;2.38;;;;;;;18.81;74.81;96048.53;128176;1093;33678;-93
2021/06/30 02:26:26;;;;;;;5.60;2.33;;;;;;;18.75;74.68;96041.86;128040;1093;27414;-94
2021/06/30 02:28:58;;;;;;;3.50;2.48;;;;;;;18.77;74.99;96015.44;128366;1093;36192;-95
2021/06/30 02:31:30;;;;;;;4.40;2.23;;;;;;;18.79;75.37;95986.33;128577;1093;34011;-95
2021/06/30 02:34:02;;;;;;;5.08;2.05;;;;;;;18.84;75.42;95948.47;128439;1093;33610;-95
2021/06/30 02:36:33;;;;;;;6.60;1.85;;;;;;;18.83;75.17;95946.91;128346;1093;32454;-94
2021/06/30 02:39:05;;;;;;;3.33;2.50;;;;;;;18.69;75.49;95957.30;128322;1093;32379;-94
2021/06/30 02:41:37;;;;;;;3.48;2.08;;;;;;;18.54;75.80;95952.67;128260;1092;28021;-93
2021/06/30 02:44:08;;;;;;;4.45;2.03;;;;;;;18.45;76.19;95946.70;128051;1092;29929;-94
2021/06/30 02:46:40;;;;;;;2.73;1.83;;;;;;;18.43;76.31;95941.66;127996;1093;29635;-94
2021/06/30 02:49:11;;;;;;;4.83;2.18;;;;;;;18.51;76.79;95951.46;128115;1093;37604;-95
2021/06/30 02:51:43;;;;;;;6.08;2.08;;;;;;;18.61;76.71;95944.81;128108;1093;31286;-95
2021/06/30 02:54:14;;;;;;;3.05;2.05;;;;;;;18.71;76.75;95933.56;128159;1093;48618;-94
2021/06/30 02:56:46;;;;;;;3.03;2.25;;;;;;;18.74;76.54;95924.06;128166;1093;30354;-94
2021/06/30 02:59:17;;;;;;;4.05;2.60;;;;;;;18.67;76.03;95925.43;128084;1092;34680;-94
2021/06/30 03:01:49;;;;;;;2.98;2.45;;;;;;;18.60;76.46;95914.50;128049;1093;38661;-94
2021/06/30 03:04:20;;;;;;;4.60;2.55;;;;;;;18.58;76.68;95915.95;128267;1092;35795;-95
2021/06/30 03:06:51;;;;;;;8.28;3.08;;;;;;;18.54;76.78;95898.98;128231;1093;34371;-93
2021/06/30 03:09:23;;;;;;;4.13;2.98;;;;;;;18.55;76.85;95900.54;128173;1093;33751;-93
2021/06/30 03:11:55;;;;;;;5.80;2.80;;;;;;;18.61;77.16;95897.27;128313;1092;49856;-94
2021/06/30 03:14:26;;;;;;;6.75;3.20;;;;;;;18.69;77.19;95887.48;128382;1093;37524;-94
2021/06/30 03:16:58;;;;;;;3.27;2.63;;;;;;;18.75;77.16;95880.75;128401;1092;37403;-95
2021/06/30 03:19:29;;;;;;;5.23;2.47;;;;;;;18.81;77.04;95881.25;128427;1093;32414;-95
2021/06/30 03:22:01;;;;;;;5.58;2.80;;;;;;;18.89;76.99;95881.08;128470;1093;37027;-94
2021/06/30 03:24:32;;;;;;;6.00;2.80;;;;;;;18.97;76.57;95879.31;128196;1093;33274;-95
2021/06/30 03:27:06;;;;;;;4.58;2.73;;;;;;;19.02;76.62;95886.34;128290;1092;29586;-94
2021/06/30 03:29:37;;;;;;;4.65;2.80;;;;;;;18.96;75.75;95875.07;128061;1093;37530;-93
2021/06/30 03:32:10;;;;;;;5.55;2.90;;;;;;;18.86;75.97;95881.78;128034;1091;32574;-93
2021/06/30 03:34:41;;;;;;;4.33;2.80;;;;;;;18.74;76.44;95903.36;127998;1093;33661;-92
2021/06/30 03:37:13;;;;;;;5.20;2.90;;;;;;;18.62;76.79;95896.14;128081;1093;32224;-93
2021/06/30 03:39:44;;;;;;;5.05;2.78;;;;;;;18.56;77.32;95894.82;128068;1093;30994;-93
2021/06/30 03:42:15;;;;;;;3.75;3.25;;;;;;;18.57;77.59;95903.66;128193;1093;29424;-95
2021/06/30 03:44:47;;;;;;;6.20;2.70;;;;;;;18.63;77.95;95902.28;128279;1093;35788;-95
2021/06/30 03:47:18;;;;;;;3.48;2.53;;;;;;;18.79;78.06;95900.39;128226;1093;31540;-91
2021/06/30 03:49:50;;;;;;;3.50;2.83;;;;;;;18.93;78.22;95911.47;128622;1093;33065;-95
2021/06/30 03:52:21;;;;;;;5.13;2.83;;;;;;;19.08;78.30;95915.27;128523;1093;33992;-96
2021/06/30 03:54:54;;;;;;;6.57;3.43;;;;;;;19.16;78.19;95926.97;128383;1092;39041;-94
2021/06/30 03:57:26;;;;;;;5.98;2.78;;;;;;;19.02;77.94;95932.79;128279;1093;35739;-94
2021/06/30 03:59:57;;;;;;;6.47;3.70;;;;;;;18.85;78.24;95944.65;128444;1093;44965;-95
2021/06/30 04:02:29;;;;;;;4.78;3.35;;;;;;;18.89;78.89;95939.39;128686;1093;44027;-96
2021/06/30 04:05:01;;;;;;;6.23;3.40;;;;;;;19.00;79.10;95940.39;128523;1093;39654;-93
2021/06/30 04:07:32;;;;;;;5.25;3.00;;;;;;;19.14;79.31;95937.26;128152;1092;30736;-93
2021/06/30 04:10:04;;;;;;;7.55;3.65;;;;;;;19.21;79.31;95945.49;128124;1093;72980;-94
2021/06/30 04:12:35;;;;;;;7.38;3.75;;;;;;;19.37;79.61;95956.98;128295;1093;31697;-94
2021/06/30 04:15:09;;;;;;;9.08;4.18;;;;;;;19.46;79.54;95960.27;128227;1092;37824;-95
2021/06/30 04:17:40;;;;;;;4.35;3.20;;;;;;;19.59;79.64;95968.25;128234;1092;33579;-92
2021/06/30 04:20:13;;;;;;;4.78;3.40;;;;;;;19.73;79.66;95969.33;128277;1093;37770;-93
2021/06/30 04:22:44;;;;;;;3.88;3.30;;;;;;;19.89;79.84;95971.96;128329;1093;75480;-93
2021/06/30 04:25:16;;;;;;;5.63;3.80;;;;;;;19.96;78.93;95966.70;128410;1092;34708;-93
2021/06/30 04:27:48;;;;;;;4.65;3.50;;;;;;;20.11;79.24;95978.53;128459;1093;31520;-94
2021/06/30 04:30:20;;;;;;;6.03;3.73;;;;;;;20.26;79.45;95987.66;128372;1093;33635;-91
2021/06/30 04:32:52;;;;;;;5.83;4.08;;;;;;;20.29;78.23;95978.90;128226;1091;38107;-93
2021/06/30 04:35:23;;;;;;;5.40;3.73;;;;;;;20.22;78.04;95970.67;128014;1093;32033;-93
2021/06/30 04:37:54;;;;;;;4.63;3.63;;;;;;;20.20;78.23;95971.03;128190;1093;30241;-93
2021/06/30 04:40:26;;;;;;;4.10;3.10;;;;;;;20.25;78.49;95978.03;128194;1093;32482;-94
2021/06/30 04:42:57;;;;;;;6.13;3.63;;;;;;;20.32;78.42;95976.27;128221;1093;31905;-92
2021/06/30 04:45:29;;;;;;;5.35;3.63;;;;;;;20.44;78.25;95969.98;128083;1093;43167;-91
2021/06/30 04:48:00;;;;;;;4.35;3.28;;;;;;;20.60;77.65;95978.73;127859;1093;24453;-90
2021/06/30 04:50:32;;;;;;;4.13;3.10;;;;;;;20.80;78.33;95984.84;127529;1093;322245;-93
2021/06/30 04:53:03;;;;;;;6.08;4.23;;;;;;;20.95;77.93;95997.41;127871;1093;27296;-91
2021/06/30 04:55:34;;;;;;;7.40;3.90;;;;;;;21.10;76.88;96019.98;127826;1093;32463;-92
2021/06/30 04:58:09;;;;;;;8.18;4.13;;;;;;;21.22;77.02;96009.02;127834;1093;24734;-92
2021/06/30 05:00:40;;;;;;;6.70;4.13;;;;;;;21.45;77.22;96005.55;127921;1093;28232;-91
2021/06/30 05:03:12;;;;;;;5.35;3.60;;;;;;;21.64;76.68;96013.52;127897;1093;22990;-90
2021/06/30 05:05:43;;;;;;;7.33;3.93;;;;;;;21.76;76.19;96026.03;127816;1093;24385;-91
2021/06/30 05:08:21;;;;;;;5.60;3.77;;;;;;;21.80;75.60;96033.02;127837;1093;43729;-90
2021/06/30 05:10:52;;;;;;;7.48;4.18;;;;;;;21.70;74.90;96032.89;127894;1092;25033;-92
2021/06/30 05:13:24;;;;;;;5.60;4.38;;;;;;;21.60;74.75;96024.27;127892;1093;23828;-90
2021/06/30 05:15:55;;;;;;;5.50;4.47;;;;;;;21.49;74.20;96026.03;127871;1093;24137;-93
2021/06/30 05:18:26;;;;;;;6.30;3.83;;;;;;;21.46;74.57;96032.16;127854;1093;24791;-92
2021/06/30 05:20:58;;;;;;;6.45;4.43;;;;;;;21.53;74.88;96036.86;127804;1093;25547;-91
2021/06/30 05:23:29;;;;;;;7.73;4.30;;;;;;;21.70;75.50;96033.67;127765;1093;30052;-93
2021/06/30 05:26:00;;;;;;;6.45;4.50;;;;;;;22.02;75.72;96033.32;127824;1093;26242;-90
2021/06/30 05:28:32;;;;;;;5.15;4.48;;;;;;;22.24;74.94;96043.29;127753;1091;35124;-90
2021/06/30 05:31:03;;;;;;;6.73;4.15;;;;;;;22.66;75.73;96036.80;127785;1093;24804;-90
2021/06/30 05:33:34;;;;;;;7.43;4.35;;;;;;;23.40;76.02;96036.75;127794;1093;25431;-89
2021/06/30 05:36:06;;;;;;;5.20;4.28;;;;;;;24.09;74.03;96036.84;127881;1093;26487;-90
2021/06/30 05:38:38;;;;;;;4.80;3.85;;;;;;;24.64;72.65;96044.83;127856;1093;23787;-90
2021/06/30 05:41:09;;;;;;;7.10;4.18;;;;;;;24.97;71.56;96040.24;127885;1092;23251;-93
2021/06/30 05:43:40;;;;;;;7.00;4.40;;;;;;;25.52;70.99;96053.48;128034;1092;25930;-89
2021/06/30 05:46:12;;;;;;;6.50;4.33;;;;;;;26.07;70.18;96050.33;127841;1093;25581;-91
2021/06/30 05:48:43;;;;;;;5.08;3.53;;;;;;;26.60;68.81;96053.66;127784;1093;48422;-89
2021/06/30 05:51:15;;;;;;;7.25;3.83;;;;;;;26.90;66.21;96061.27;127889;1092;24136;-87
2021/06/30 05:53:46;;;;;;;6.13;4.05;;;;;;;27.34;65.82;96053.63;127879;1093;68009;-89
2021/06/30 05:56:18;;;;;;;5.08;3.43;;;;;;;27.83;63.44;96070.73;127944;1093;26248;-92
2021/06/30 05:58:49;;;;;;;4.33;3.20;;;;;;;27.95;61.74;96076.45;127859;1093;47233;-89
2021/06/30 06:01:21;;;;;;;5.38;3.53;;;;;;;27.90;59.98;96067.95;127785;1093;68441;-92
2021/06/30 06:03:52;;;;;;;5.10;3.05;;;;;;;27.50;59.02;96072.94;127931;1093;26245;-87
2021/06/30 06:06:24;;;;;;;4.08;2.95;;;;;;;27.46;58.68;96070.25;127870;1092;24138;-88
2021/06/30 06:08:55;;;;;;;4.75;2.88;;;;;;;27.26;57.65;96073.89;127908;1092;30699;-93
2021/06/30 06:11:27;;;;;;;6.70;3.10;;;;;;;27.15;57.63;96082.89;127848;1092;24410;-88
2021/06/30 06:13:58;;;;;;;7.98;3.50;;;;;;;26.90;56.83;96080.31;127871;1093;27157;-91
2021/06/30 06:16:31;;;;;;;4.45;2.63;;;;;;;26.61;57.09;96076.19;127912;1093;24130;-94
2021/06/30 06:19:03;;;;;;;5.03;2.98;;;;;;;26.23;57.08;96081.33;127888;1093;24495;-89
2021/06/30 06:21:35;;;;;;;4.13;2.80;;;;;;;25.85;56.95;96082.95;127953;1093;57596;-88
2021/06/30 06:24:08;;;;;;;3.63;2.85;;;;;;;25.53;57.10;96076.75;127969;1093;29933;-90
2021/06/30 06:26:40;;;;;;;3.83;2.60;;;;;;;25.24;57.06;96074.02;127887;1092;23894;-92
2021/06/30 06:29:12;;;;;;;3.95;3.03;;;;;;;25.09;57.62;96073.23;127868;1093;23751;-86
2021/06/30 06:31:45;;;;;;;3.68;2.50;;;;;;;24.93;57.98;96077.44;127906;1093;22939;-89
2021/06/30 06:34:19;;;;;;;4.23;2.78;;;;;;;24.74;58.12;96076.59;127997;1093;22795;-86
2021/06/30 06:36:52;;;;;;;4.63;2.70;;;;;;;24.75;58.30;96078.14;127860;1093;32306;-87
2021/06/30 06:39:23;;;;;;;6.03;2.83;;;;;;;24.80;58.76;96085.92;128018;1093;24078;-88
2021/06/30 06:41:55;;;;;;;4.43;2.95;;;;;;;25.00;58.91;96075.53;127945;1093;23297;-92
2021/06/30 06:44:27;;;;;;;3.18;2.83;;;;;;;25.22;58.43;96076.35;128035;1092;28204;-89
2021/06/30 06:46:58;;;;;;;4.25;2.80;;;;;;;25.50;58.48;96077.53;128237;1092;22933;-88
2021/06/30 06:49:30;;;;;;;5.50;2.73;;;;;;;25.79;58.53;96083.75;127945;1093;26059;-94
2021/06/30 06:52:02;;;;;;;6.08;3.00;;;;;;;25.99;57.27;96082.93;127813;1093;27151;-94
2021/06/30 06:54:33;;;;;;;3.95;2.75;;;;;;;26.21;56.15;96074.75;127844;1093;25477;-90
2021/06/30 06:57:05;;;;;;;4.05;2.73;;;;;;;26.07;55.78;96072.06;127912;1093;27223;-94
2021/06/30 06:59:37;;;;;;;2.60;2.00;;;;;;;26.13;56.36;96081.35;127868;1093;24092;-91
2021/06/30 07:02:11;;;;;;;2.85;2.00;;;;;;;26.30;55.01;96075.09;127855;1093;28354;-90
2021/06/30 07:04:42;;;;;;;4.70;2.20;;;;;;;26.32;54.92;96078.18;127864;1093;23927;-92
2021/06/30 07:07:14;;;;;;;4.48;2.90;;;;;;;26.45;54.49;96076.61;127954;1093;30348;-89
2021/06/30 07:09:45;;;;;;;3.88;1.90;;;;;;;26.49;54.18;96068.47;127905;1093;24514;-89
2021/06/30 07:12:17;;;;;;;3.50;2.38;;;;;;;26.66;53.61;96064.11;127904;1093;24754;-90
2021/06/30 07:15:03;;;;;;;3.00;2.10;;;;;;;26.84;54.02;96056.63;127950;1093;23537;-89
2021/06/30 07:17:36;;;;;;;4.70;2.18;;;;;;;27.13;53.89;96063.47;127887;1093;24416;-95
2021/06/30 07:20:10;;;;;;;2.63;1.95;;;;;;;27.55;53.10;96063.55;127886;1093;25973;-92
2021/06/30 07:22:42;;;;;;;2.78;1.68;;;;;;;27.68;52.31;96059.97;128021;1093;26171;-90
2021/06/30 07:25:22;;;;;;;2.98;1.60;;;;;;;27.94;51.62;96055.83;128161;1091;27407;-88
2021/06/30 07:27:53;;;;;;;3.33;1.63;;;;;;;28.07;50.66;96045.97;128328;1092;27263;-87
2021/06/30 07:30:25;;;;;;;1.85;1.28;;;;;;;28.15;50.44;96046.64;128243;1093;29480;-86
2021/06/30 07:32:56;;;;;;;5.48;1.63;;;;;;;28.51;51.20;96049.00;128147;1093;26860;-86
2021/06/30 07:35:28;;;;;;;2.85;1.88;;;;;;;28.64;49.78;96050.00;128161;1093;26494;-85
2021/06/30 07:38:00;;;;;;;1.93;1.33;;;;;;;28.62;50.24;96055.88;128325;1092;25169;-86
2021/06/30 07:40:32;;;;;;;2.45;1.80;;;;;;;29.00;49.75;96054.99;128159;1093;28744;-86
2021/06/30 07:43:04;;;;;;;2.85;1.80;;;;;;;29.01;48.53;96051.11;128147;1093;29232;-86
2021/06/30 07:45:35;;;;;;;1.85;1.60;;;;;;;29.12;48.38;96048.97;128086;1093;23966;-86
2021/06/30 07:48:07;;;;;;;4.20;1.50;;;;;;;29.42;48.04;96046.18;128069;1093;28099;-87
2021/06/30 07:50:41;;;;;;;1.85;1.35;;;;;;;29.64;47.38;96048.57;127988;1093;31821;-89
2021/06/30 07:53:12;;;;;;;3.35;1.80;;;;;;;29.76;47.71;96051.48;128006;1093;28306;-91
2021/06/30 07:55:46;;;;;;;2.23;1.60;;;;;;;29.84;46.46;96052.11;127943;1092;25605;-89
2021/06/30 07:58:19;;;;;;;2.13;1.60;;;;;;;29.92;47.06;96052.77;127981;1093;25421;-88
2021/06/30 08:00:51;;;;;;;3.68;1.80;;;;;;;29.88;46.21;96050.11;127930;1093;25623;-89
2021/06/30 08:03:22;;;;;;;1.50;1.33;;;;;;;29.63;46.39;96053.27;127842;1093;31591;-89
2021/06/30 08:05:54;;;;;;;2.63;1.63;;;;;;;29.71;45.56;96060.17;127857;1092;25276;-90
2021/06/30 08:08:25;;;;;;;2.48;1.83;;;;;;;29.44;45.65;96062.15;127858;1092;26398;-88
2021/06/30 08:10:57;;;;;;;3.08;1.68;;;;;;;29.48;46.08;96047.27;127859;1093;26640;-92
2021/06/30 08:13:28;;;;;;;3.58;1.70;;;;;;;29.24;45.46;96060.09;127877;1092;25218;-90
2021/06/30 08:16:00;;;;;;;2.10;1.60;;;;;;;29.09;45.82;96060.72;127877;1093;24904;-89
2021/06/30 08:18:31;;;;;;;2.45;1.58;;;;;;;29.32;45.94;96065.45;127899;1093;24375;-91
2021/06/30 08:21:03;;;;;;;1.98;1.63;;;;;;;29.52;46.44;96058.13;127894;1093;23477;-89
2021/06/30 08:23:34;;;;;;;3.20;1.50;;;;;;;29.88;45.58;96060.27;127880;1093;24163;-90
2021/06/30 08:26:08;;;;;;;1.60;1.35;;;;;;;30.18;46.86;96059.35;127870;1093;31063;-95
2021/06/30 08:28:39;;;;;;;3.35;1.50;;;;;;;30.73;46.15;96056.70;127889;1092;24010;-87
2021/06/30 08:31:11;;;;;;;2.50;1.40;;;;;;;30.77;44.34;96045.67;127878;1093;25410;-91
2021/06/30 08:33:42;;;;;;;2.50;1.70;;;;;;;30.66;44.66;96047.86;127887;1093;24584;-88
2021/06/30 08:36:14;;;;;;;2.37;1.30;;;;;;;30.99;45.60;96051.45;127914;1093;28553;-90
2021/06/30 08:38:45;;;;;;;4.30;1.73;;;;;;;31.33;44.61;96051.08;127947;1093;23883;-88
2021/06/30 08:41:20;;;;;;;2.58;1.70;;;;;;;31.46;43.97;96045.69;127948;1091;22789;-88
2021/06/30 08:43:51;;;;;;;2.48;1.50;;;;;;;31.33;44.39;96053.82;127863;1093;26746;-88
2021/06/30 08:46:24;;;;;;;2.58;1.63;;;;;;;30.99;43.41;96062.41;127869;1093;24268;-86
2021/06/30 08:48:59;;;;;;;3.48;1.75;;;;;;;30.92;43.81;96052.38;127862;1093;30879;-89
2021/06/30 08:51:31;;;;;;;5.75;1.83;;;;;;;31.17;44.48;96064.73;127862;1093;30940;-91
2021/06/30 08:54:07;;;;;;;1.40;1.30;;;;;;;31.31;43.24;96056.99;127886;1093;25680;-89
2021/06/30 08:56:40;;;;;;;1.83;1.33;;;;;;;30.81;43.45;96056.53;127858;1093;40234;-89
2021/06/30 08:59:12;;;;;;;1.73;1.33;;;;;;;30.62;42.83;96058.88;127896;1093;24904;-89
2021/06/30 09:01:45;;;;;;;4.20;1.85;;;;;;;29.97;44.03;96065.95;127871;1093;26456;-88
2021/06/30 09:04:16;;;;;;;1.88;1.45;;;;;;;29.88;44.53;96061.04;127919;1091;25938;-88
2021/06/30 09:06:48;;;;;;;1.95;1.80;;;;;;;29.38;44.56;96055.59;127922;1093;27104;-92
2021/06/30 09:09:20;;;;;;;2.03;1.70;;;;;;;29.18;45.63;96059.02;127899;1093;22888;-86
2021/06/30 09:11:59;;;;;;;3.95;1.90;;;;;;;28.94;45.06;96062.88;127856;1092;27439;-89
2021/06/30 09:14:39;;;;;;;4.35;2.03;;;;;;;28.90;45.97;96060.20;127882;1093;22845;-92
2021/06/30 09:17:17;;;;;;;2.35;2.13;;;;;;;29.07;46.14;96052.17;127884;1093;23297;-90
2021/06/30 09:20:06;;;;;;;2.75;2.03;;;;;;;29.01;45.86;96051.11;127945;1091;23397;-91
2021/06/30 09:22:49;;;;;;;3.95;2.50;;;;;;;29.16;46.19;96052.44;127829;1093;25464;-93
2021/06/30 09:25:34;;;;;;;3.00;2.30;;;;;;;28.94;45.69;96058.19;127909;1093;24965;-87
2021/06/30 09:28:22;;;;;;;3.65;2.55;;;;;;;28.71;46.79;96052.63;127928;1093;25914;-94
2021/06/30 09:31:02;;;;;;;3.98;2.48;;;;;;;28.64;46.81;96052.73;127872;1093;28597;-90
2021/06/30 09:33:54;;;;;;;3.38;2.38;;;;;;;28.55;47.24;96042.31;127897;1093;23314;-89
2021/06/30 09:36:30;;;;;;;3.60;2.58;;;;;;;28.60;46.53;96043.83;127840;1093;27794;-87
2021/06/30 09:39:09;;;;;;;5.25;2.75;;;;;;;28.32;47.39;96044.95;127881;1093;26997;-89
2021/06/30 09:41:44;;;;;;;3.73;2.60;;;;;;;28.48;47.66;96036.19;127912;1093;26113;-91
2021/06/30 09:44:18;;;;;;;3.28;2.98;;;;;;;28.47;47.19;96031.92;127969;1093;22937;-90
2021/06/30 09:46:53;;;;;;;4.40;2.73;;;;;;;28.30;47.99;96042.63;127859;1092;30745;-88
2021/06/30 09:49:26;;;;;;;3.63;2.80;;;;;;;28.48;48.01;96038.91;127902;1093;28191;-89
2021/06/30 09:52:12;;;;;;;4.23;3.18;;;;;;;28.63;48.02;96043.00;127866;1093;32343;-92
2021/06/30 09:54:46;;;;;;;4.58;2.93;;;;;;;28.68;48.19;96046.03;127899;1093;25586;-89
2021/06/30 09:57:19;;;;;;;3.85;2.95;;;;;;;28.46;47.57;96033.88;127928;1093;30195;-89
2021/06/30 09:59:51;;;;;;;4.08;2.80;;;;;;;28.03;48.02;96044.47;127858;1093;25412;-88
2021/06/30 10:02:23;;;;;;;3.53;3.00;;;;;;;27.63;48.64;96040.55;127824;1093;25863;-89
2021/06/30 10:05:02;;;;;;;3.50;3.20;;;;;;;27.56;49.64;96048.77;127864;1093;25055;-89
2021/06/30 10:07:34;;;;;;;4.98;3.08;;;;;;;27.49;49.69;96047.66;127882;1093;34813;-91
2021/06/30 10:10:08;;;;;;;5.23;2.85;;;;;;;27.60;50.34;96050.30;127880;1092;25612;-88
2021/06/30 10:12:40;;;;;;;4.28;2.68;;;;;;;27.75;49.87;96046.30;127905;1093;26127;-91
2021/06/30 10:15:13;;;;;;;5.08;2.88;;;;;;;27.64;49.40;96056.51;127886;1092;40340;-88
2021/06/30 10:17:44;;;;;;;4.55;3.08;;;;;;;27.25;50.31;96050.57;127919;1093;26901;-89
2021/06/30 10:20:18;;;;;;;3.63;3.20;;;;;;;27.15;50.47;96050.23;127914;1093;31956;-90
2021/06/30 10:22:49;;;;;;;5.33;3.10;;;;;;;27.10;50.98;96047.95;127881;1093;23772;-90
2021/06/30 10:25:21;;;;;;;7.03;3.60;;;;;;;27.28;51.00;96053.26;127885;1092;30197;-87
2021/06/30 10:27:56;;;;;;;4.85;3.28;;;;;;;27.40;51.04;96046.56;127826;1093;26245;-89
2021/06/30 10:30:28;;;;;;;6.03;3.60;;;;;;;27.44;50.64;96039.13;127879;1093;25517;-90
2021/06/30 10:33:04;;;;;;;3.80;3.40;;;;;;;27.28;50.66;96036.16;127859;1093;23468;-90
2021/06/30 10:35:47;;;;;;;4.50;3.55;;;;;;;27.23;51.25;96037.36;127882;1093;26671;-89
2021/06/30 10:38:19;;;;;;;5.65;3.53;;;;;;;27.44;52.00;96039.13;127982;1091;26674;-89
2021/06/30 10:40:50;;;;;;;5.00;3.90;;;;;;;27.72;51.60;96032.69;127870;1093;23874;-87
2021/06/30 10:43:22;;;;;;;5.23;3.73;;;;;;;27.97;51.65;96022.31;127872;1093;24043;-90
2021/06/30 10:46:26;;;;;;;5.78;3.85;;;;;;;28.19;50.92;96030.27;127837;1093;26277;-89
2021/06/30 10:49:21;;;;;;;6.03;3.60;;;;;;;28.26;51.17;96024.72;127857;1093;23705;-90
2021/06/30 10:51:55;;;;;;;6.63;3.88;;;;;;;28.21;51.23;96017.78;127881;1093;28920;-89
2021/06/30 10:54:44;;;;;;;5.48;4.18;;;;;;;28.16;50.80;96025.64;127893;1093;28117;-91
2021/06/30 10:57:38;;;;;;;8.85;4.53;;;;;;;28.19;51.34;96019.38;127940;1093;23583;-89
2021/06/30 11:00:21;;;;;;;5.40;4.45;;;;;;;28.30;51.98;96017.33;127891;1092;22790;-88
2021/06/30 11:03:27;;;;;;;5.73;4.08;;;;;;;28.40;51.11;96019.13;127916;1093;25677;-90
2021/06/30 11:06:32;;;;;;;7.60;4.07;;;;;;;28.17;50.65;96017.05;127870;1092;24872;-92
2021/06/30 11:09:08;;;;;;;4.95;4.35;;;;;;;28.05;51.75;96026.53;127856;1093;30544;-89
2021/06/30 11:12:05;;;;;;;8.50;4.67;;;;;;;28.15;51.57;96024.84;127838;1093;32006;-89
2021/06/30 11:14:47;;;;;;;4.70;4.13;;;;;;;28.07;51.07;96021.44;127848;1093;26893;-87
2021/06/30 11:17:38;;;;;;;6.43;4.35;;;;;;;28.12;51.12;96028.39;127920;1093;34578;-88
2021/06/30 11:20:11;;;;;;;5.43;4.33;;;;;;;27.96;50.38;96028.17;127871;1093;23453;-89
2021/06/30 11:22:43;;;;;;;5.35;4.13;;;;;;;27.78;50.76;96023.69;127821;1093;30668;-88
2021/06/30 11:25:26;;;;;;;5.28;3.98;;;;;;;27.70;50.76;96022.20;127836;1092;23373;-89
2021/06/30 11:27:58;;;;;;;5.55;4.05;;;;;;;27.66;51.43;96026.92;127898;1091;31068;-91
2021/06/30 11:30:38;;;;;;;5.78;4.00;;;;;;;27.90;52.11;96024.36;127840;1093;28488;-89
2021/06/30 11:33:17;;;;;;;4.53;3.83;;;;;;;28.09;52.09;96013.63;127878;1093;27453;-88
2021/06/30 11:35:49;;;;;;;4.75;3.68;;;;;;;28.17;51.31;96011.60;127940;1093;22774;-89
2021/06/30 11:38:29;;;;;;;5.05;3.75;;;;;;;28.10;51.42;96008.95;127904;1093;26051;-89
2021/06/30 11:41:09;;;;;;;7.80;4.05;;;;;;;28.12;51.92;96000.36;127844;1092;29236;-91
2021/06/30 11:43:42;;;;;;;4.00;3.35;;;;;;;28.29;52.87;95992.02;127866;1093;29893;-89
2021/06/30 11:46:14;;;;;;;4.40;3.35;;;;;;;28.33;51.58;95987.28;127901;1093;26156;-91
2021/06/30 11:48:53;;;;;;;4.55;3.53;;;;;;;28.02;50.75;95985.70;127895;1093;69303;-89
2021/06/30 11:51:24;;;;;;;4.43;3.18;;;;;;;27.88;50.80;95977.69;127867;1093;35988;-89
2021/06/30 11:53:56;;;;;;;3.58;3.15;;;;;;;27.74;50.71;95975.88;127859;1093;37408;-92